Nearby METAR Reports

 

KMNN - Marion, Ohio, USA
Distance from station: ENE 4mi, 6km
Updated: 05/15/2021 8:53pm
Partly cloudy
Partly cloudy
 Wind from calm
Wind: Calm
Temperature: 64°F , 18°C
Dew Point: 39°F , 4°C
Humidity: 40%
Barometer: 30.20 inHg , 1022.7 hPa
Clouds: Partly cloudy
Visibility: 10 miles , 16 km
Cloud details: Partly cloudy 10000 ft
2021/05/16 00:53 KMNN 160053Z AUTO 00000KT 10SM SCT100 18/04 A3020 RMK AO2 SLP226 T01780039
KDLZ - Delaware, Ohio, USA
Distance from station: S 21mi, 34km
Updated: 05/15/2021 9:35pm
Mostly cloudy
Mostly cloudy
 Wind from calm
Wind: Calm
Temperature: 61°F , 16°C
Dew Point: 45°F , 7°C
Humidity: 55%
Barometer: 30.21 inHg , 1023 hPa
Clouds: Mostly cloudy
Visibility: 10 miles , 16 km
Cloud details: Partly cloudy 10000 ft
Mostly cloudy 12000 ft
2021/05/16 01:35 KDLZ 160135Z AUTO 00000KT 10SM SCT100 BKN120 16/07 A3021 RMK AO2
 
KMRT - Marysville, Ohio, USA
Distance from station: SSW 28mi, 45km
Updated: 05/15/2021 9:35pm
Partly cloudy
Partly cloudy
 Wind from calm
Wind: Calm
Temperature: 61°F , 16°C
Dew Point: 45°F , 7°C
Humidity: 55%
Barometer: 30.20 inHg , 1022.7 hPa
Clouds: Partly cloudy
Visibility: 10 miles , 16 km
Cloud details: Partly cloudy 9500 ft
2021/05/16 01:35 KMRT 160135Z AUTO 00000KT 10SM SCT095 16/07 A3020 RMK AO2 T01600074
KOSU - Columbus/St Univ, Ohio, USA
Distance from station: S 35mi, 56km
Updated: 05/15/2021 8:53pm
Clear
Clear
 Wind from S
Wind: S 3 mph , 6 km/h
Temperature: 66°F , 19°C
Dew Point: 36°F , 2°C
Humidity: 32%
Barometer: 30.19 inHg , 1022.4 hPa
Clouds: Clear
Visibility: 10 miles , 16 km
2021/05/16 00:53 KOSU 160053Z 18003KT 10SM CLR 19/02 A3019 RMK AO2 SLP222 T01940017
 
KMFD - Mansfield, Ohio, USA
Distance from station: ENE 36mi, 57km
Updated: 05/15/2021 8:52pm
Clear
Clear
 Wind from calm
Wind: Calm
Temperature: 61°F , 16°C
Dew Point: 41°F , 5°C
Humidity: 48%
Barometer: 30.21 inHg , 1023 hPa
Clouds: Clear
Visibility: 10 miles , 16 km
2021/05/16 00:52 KMFD 160052Z 00000KT 10SM CLR 16/05 A3021 RMK AO2 SLP227 T01610050
K4I3 - Mt Vernon/Knox, Ohio, USA
Distance from station: ESE 36mi, 58km
Updated: 05/15/2021 9:35pm
Clear
Clear
 Wind from calm
Wind: Calm
Temperature: 61°F , 16°C
Dew Point: 36°F , 2°C
Humidity: 39%
Barometer: 30.23 inHg , 1023.7 hPa
Clouds: Clear
Visibility: 10 miles , 16 km
2021/05/16 01:35 K4I3 160135Z AUTO 00000KT 10SM CLR 16/02 A3023 RMK AO2
 
KEDJ - Bellefontaine, Ohio, USA
Distance from station: WSW 39mi, 63km
Updated: 05/15/2021 9:35pm
Clear
Clear
 Wind from calm
Wind: Calm
Temperature: 59°F , 15°C
Dew Point: 45°F , 7°C
Humidity: 59%
Barometer: 30.21 inHg , 1023 hPa
Clouds: Clear
Visibility: 10 miles , 16 km
2021/05/16 01:35 KEDJ 160135Z AUTO 00000KT 10SM CLR 15/07 A3021 RMK AO1
KFDY - Findlay, Ohio, USA
Distance from station: NW 41mi, 66km
Updated: 05/15/2021 8:53pm
Partly cloudy
Partly cloudy
 Wind from calm
Wind: Calm
Temperature: 68°F , 20°C
Dew Point: 32°F , 0°C
Humidity: 26%
Barometer: 30.18 inHg , 1022 hPa
Clouds: Partly cloudy
Visibility: 10 miles , 16 km
Cloud details: Partly cloudy 12000 ft
2021/05/16 00:53 KFDY 160053Z AUTO 00000KT 10SM SCT120 20/00 A3018 RMK AO2 SLP214 T02000000
 
KCMH - Columbus, Ohio, USA
Distance from station: SSE 43mi, 69km
Updated: 05/15/2021 8:51pm
Overcast
Overcast
 Wind from calm
Wind: Calm
Temperature: 64°F , 18°C
Dew Point: 34°F , 1°C
Humidity: 32%
Barometer: 30.19 inHg , 1022.4 hPa
Clouds: Overcast
Visibility: 10 miles , 16 km
Cloud details: Mostly cloudy 14000 ft
Overcast 20000 ft
2021/05/16 00:51 KCMH 160051Z 00000KT 10SM BKN140 OVC200 18/01 A3019 RMK AO2 SLP222 T01780011
KAOH - Lima, Ohio, USA
Distance from station: W 47mi, 76km
Updated: 05/15/2021 8:53pm
Overcast
Overcast
 Wind from SSW
Wind: SSW 9 mph , 15 km/h
Temperature: 64°F , 18°C
Dew Point: 41°F , 5°C
Humidity: 43%
Barometer: 30.19 inHg , 1022.4 hPa
Clouds: Overcast
Visibility: 10 miles , 16 km
Cloud details: Overcast 10000 ft
2021/05/16 00:53 KAOH 160053Z AUTO 20008KT 10SM OVC100 18/05 A3019 RMK AO2 SLP222 T01780050
 
KTZR - Columbus/Bolton, Ohio, USA
Distance from station: S 48mi, 77km
Updated: 05/15/2021 9:35pm
Clear
Clear
 Wind from calm
Wind: Calm
Temperature: 59°F , 15°C
Dew Point: 45°F , 7°C
Humidity: 59%
Barometer: 30.21 inHg , 1023 hPa
Clouds: Clear
Visibility: 10 miles , 16 km
2021/05/16 01:35 KTZR 160135Z AUTO 00000KT 10SM CLR 15/07 A3021 RMK AO2 T01490070
KUYF - London, Ohio, USA
Distance from station: SSW 49mi, 78km
Updated: 05/15/2021 9:35pm
Partly cloudy
Partly cloudy
 Wind from WSW
Wind: WSW 3 mph , 6 km/h
Temperature: 59°F , 15°C
Dew Point: 41°F , 5°C
Humidity: 51%
Barometer: 30.20 inHg , 1022.7 hPa
Clouds: Partly cloudy
Visibility: 10 miles , 16 km
Cloud details: Partly cloudy 9500 ft
Partly cloudy 12000 ft
2021/05/16 01:35 KUYF 160135Z AUTO 24003KT 10SM SCT095 SCT120 15/05 A3020 RMK AO2